sensor_id;sensor_type;location;lat;lon;timestamp;temperature;humidity
21662;DHT22;10992;48.170;8.596;2022-10-31T00:01:25;8.90;99.90
21662;DHT22;10992;48.170;8.596;2022-10-31T00:03:52;8.80;99.90
21662;DHT22;10992;48.170;8.596;2022-10-31T00:06:20;8.70;99.90
21662;DHT22;10992;48.170;8.596;2022-10-31T00:08:52;8.60;99.90
21662;DHT22;10992;48.170;8.596;2022-10-31T00:11:19;8.50;99.90
21662;DHT22;10992;48.170;8.596;2022-10-31T00:13:46;8.50;99.90
21662;DHT22;10992;48.170;8.596;2022-10-31T00:16:18;8.60;99.90
21662;DHT22;10992;48.170;8.596;2022-10-31T00:18:48;8.80;99.90
21662;DHT22;10992;48.170;8.596;2022-10-31T00:21:16;8.80;99.90
21662;DHT22;10992;48.170;8.596;2022-10-31T00:23:43;8.90;99.90
21662;DHT22;10992;48.170;8.596;2022-10-31T00:26:10;9.00;99.90
21662;DHT22;10992;48.170;8.596;2022-10-31T00:28:37;9.00;99.90
21662;DHT22;10992;48.170;8.596;2022-10-31T00:31:06;9.00;99.90
21662;DHT22;10992;48.170;8.596;2022-10-31T00:33:35;9.00;99.90
21662;DHT22;10992;48.170;8.596;2022-10-31T00:36:04;8.90;99.90
21662;DHT22;10992;48.170;8.596;2022-10-31T00:38:32;9.00;99.90
21662;DHT22;10992;48.170;8.596;2022-10-31T00:40:59;9.00;99.90
21662;DHT22;10992;48.170;8.596;2022-10-31T00:43:26;9.10;99.90
21662;DHT22;10992;48.170;8.596;2022-10-31T00:45:53;9.10;99.90
21662;DHT22;10992;48.170;8.596;2022-10-31T00:48:24;9.00;99.90
21662;DHT22;10992;48.170;8.596;2022-10-31T00:50:52;8.90;99.90
21662;DHT22;10992;48.170;8.596;2022-10-31T00:53:19;8.80;99.90
21662;DHT22;10992;48.170;8.596;2022-10-31T00:55:46;8.80;99.90
21662;DHT22;10992;48.170;8.596;2022-10-31T00:58:13;8.70;99.90
21662;DHT22;10992;48.170;8.596;2022-10-31T01:00:49;8.60;99.90
21662;DHT22;10992;48.170;8.596;2022-10-31T01:03:28;8.50;99.90
21662;DHT22;10992;48.170;8.596;2022-10-31T01:08:27;8.30;99.90
21662;DHT22;10992;48.170;8.596;2022-10-31T01:11:24;8.20;99.90
21662;DHT22;10992;48.170;8.596;2022-10-31T01:13:52;8.10;99.90
21662;DHT22;10992;48.170;8.596;2022-10-31T01:16:22;8.20;99.90
21662;DHT22;10992;48.170;8.596;2022-10-31T01:18:50;8.40;99.90
21662;DHT22;10992;48.170;8.596;2022-10-31T01:21:23;8.40;99.90
21662;DHT22;10992;48.170;8.596;2022-10-31T01:23:53;8.50;99.90
21662;DHT22;10992;48.170;8.596;2022-10-31T01:26:22;8.60;99.90
21662;DHT22;10992;48.170;8.596;2022-10-31T01:28:55;8.80;99.90
21662;DHT22;10992;48.170;8.596;2022-10-31T01:31:24;8.80;99.90
21662;DHT22;10992;48.170;8.596;2022-10-31T01:33:52;8.60;99.90
21662;DHT22;10992;48.170;8.596;2022-10-31T01:36:28;8.40;99.90
21662;DHT22;10992;48.170;8.596;2022-10-31T01:38:57;8.30;99.90
21662;DHT22;10992;48.170;8.596;2022-10-31T01:41:29;8.30;99.90
21662;DHT22;10992;48.170;8.596;2022-10-31T01:44:01;8.20;99.90
21662;DHT22;10992;48.170;8.596;2022-10-31T01:46:37;8.10;99.90
21662;DHT22;10992;48.170;8.596;2022-10-31T01:49:10;8.20;99.90
21662;DHT22;10992;48.170;8.596;2022-10-31T01:51:42;8.10;99.90
21662;DHT22;10992;48.170;8.596;2022-10-31T01:54:15;8.10;99.90
21662;DHT22;10992;48.170;8.596;2022-10-31T01:56:44;8.00;99.90
21662;DHT22;10992;48.170;8.596;2022-10-31T01:59:17;7.90;99.90
21662;DHT22;10992;48.170;8.596;2022-10-31T02:01:47;7.80;99.90
21662;DHT22;10992;48.170;8.596;2022-10-31T02:04:15;7.70;99.90
21662;DHT22;10992;48.170;8.596;2022-10-31T02:06:49;7.70;99.90
21662;DHT22;10992;48.170;8.596;2022-10-31T02:09:19;7.70;99.90
21662;DHT22;10992;48.170;8.596;2022-10-31T02:11:52;7.70;99.90
21662;DHT22;10992;48.170;8.596;2022-10-31T02:14:26;7.60;99.90
21662;DHT22;10992;48.170;8.596;2022-10-31T02:16:54;7.70;99.90
21662;DHT22;10992;48.170;8.596;2022-10-31T02:28:30;7.80;99.90
21662;DHT22;10992;48.170;8.596;2022-10-31T02:33:50;7.70;99.90
21662;DHT22;10992;48.170;8.596;2022-10-31T02:39:16;7.90;99.90
21662;DHT22;10992;48.170;8.596;2022-10-31T02:42:08;8.00;99.90
21662;DHT22;10992;48.170;8.596;2022-10-31T02:44:42;8.00;99.90
21662;DHT22;10992;48.170;8.596;2022-10-31T02:54:47;7.50;99.90
21662;DHT22;10992;48.170;8.596;2022-10-31T02:57:15;7.30;99.90
21662;DHT22;10992;48.170;8.596;2022-10-31T02:59:47;7.30;99.90
21662;DHT22;10992;48.170;8.596;2022-10-31T03:12:40;7.20;99.90
21662;DHT22;10992;48.170;8.596;2022-10-31T03:15:43;7.10;99.90
21662;DHT22;10992;48.170;8.596;2022-10-31T03:18:28;7.10;99.90
21662;DHT22;10992;48.170;8.596;2022-10-31T03:21:09;7.20;99.90
21662;DHT22;10992;48.170;8.596;2022-10-31T03:23:39;7.10;99.90
21662;DHT22;10992;48.170;8.596;2022-10-31T03:26:08;7.10;99.90
21662;DHT22;10992;48.170;8.596;2022-10-31T03:28:44;7.20;99.90
21662;DHT22;10992;48.170;8.596;2022-10-31T03:31:17;7.30;99.90
21662;DHT22;10992;48.170;8.596;2022-10-31T03:33:46;7.30;99.90
21662;DHT22;10992;48.170;8.596;2022-10-31T03:36:15;7.40;99.90
21662;DHT22;10992;48.170;8.596;2022-10-31T03:38:45;7.40;99.90
21662;DHT22;10992;48.170;8.596;2022-10-31T03:41:19;7.40;99.90
21662;DHT22;10992;48.170;8.596;2022-10-31T03:43:55;7.40;99.90
21662;DHT22;10992;48.170;8.596;2022-10-31T03:46:25;7.50;99.90
21662;DHT22;10992;48.170;8.596;2022-10-31T03:48:55;7.50;99.90
21662;DHT22;10992;48.170;8.596;2022-10-31T03:51:24;7.40;99.90
21662;DHT22;10992;48.170;8.596;2022-10-31T03:56:32;7.40;99.90
21662;DHT22;10992;48.170;8.596;2022-10-31T03:59:24;7.30;99.90
21662;DHT22;10992;48.170;8.596;2022-10-31T04:01:58;7.20;99.90
21662;DHT22;10992;48.170;8.596;2022-10-31T04:04:27;7.20;99.90
21662;DHT22;10992;48.170;8.596;2022-10-31T04:06:57;7.40;99.90
21662;DHT22;10992;48.170;8.596;2022-10-31T04:09:26;7.40;99.90
21662;DHT22;10992;48.170;8.596;2022-10-31T04:11:56;7.50;99.90
21662;DHT22;10992;48.170;8.596;2022-10-31T04:14:47;7.60;99.90
21662;DHT22;10992;48.170;8.596;2022-10-31T04:17:17;7.40;99.90
21662;DHT22;10992;48.170;8.596;2022-10-31T04:19:45;7.20;99.90
21662;DHT22;10992;48.170;8.596;2022-10-31T04:22:13;7.10;99.90
21662;DHT22;10992;48.170;8.596;2022-10-31T04:24:40;7.00;99.90
21662;DHT22;10992;48.170;8.596;2022-10-31T04:27:11;7.00;99.90
21662;DHT22;10992;48.170;8.596;2022-10-31T04:29:37;6.80;99.90
21662;DHT22;10992;48.170;8.596;2022-10-31T04:32:04;6.80;99.90
21662;DHT22;10992;48.170;8.596;2022-10-31T04:34:31;6.80;99.90
21662;DHT22;10992;48.170;8.596;2022-10-31T04:36:58;7.00;99.90
21662;DHT22;10992;48.170;8.596;2022-10-31T04:39:25;7.20;99.90
21662;DHT22;10992;48.170;8.596;2022-10-31T04:42:30;7.20;99.90
21662;DHT22;10992;48.170;8.596;2022-10-31T04:45:01;7.20;99.90
21662;DHT22;10992;48.170;8.596;2022-10-31T04:47:34;6.90;99.90
21662;DHT22;10992;48.170;8.596;2022-10-31T04:50:01;6.90;99.90
21662;DHT22;10992;48.170;8.596;2022-10-31T04:52:28;6.80;99.90
21662;DHT22;10992;48.170;8.596;2022-10-31T04:54:56;6.80;99.90
21662;DHT22;10992;48.170;8.596;2022-10-31T04:57:43;6.80;99.90
21662;DHT22;10992;48.170;8.596;2022-10-31T05:00:13;6.60;99.90
21662;DHT22;10992;48.170;8.596;2022-10-31T05:02:48;6.50;99.90
21662;DHT22;10992;48.170;8.596;2022-10-31T05:05:17;6.40;99.90
21662;DHT22;10992;48.170;8.596;2022-10-31T05:07:46;6.40;99.90
21662;DHT22;10992;48.170;8.596;2022-10-31T05:10:19;6.40;99.90
21662;DHT22;10992;48.170;8.596;2022-10-31T05:12:50;6.30;99.90
21662;DHT22;10992;48.170;8.596;2022-10-31T05:15:36;6.30;99.90
21662;DHT22;10992;48.170;8.596;2022-10-31T05:18:23;6.40;99.90
21662;DHT22;10992;48.170;8.596;2022-10-31T05:21:08;6.40;99.90
21662;DHT22;10992;48.170;8.596;2022-10-31T05:23:49;6.30;99.90
21662;DHT22;10992;48.170;8.596;2022-10-31T05:26:17;6.30;99.90
21662;DHT22;10992;48.170;8.596;2022-10-31T05:28:44;6.30;99.90
21662;DHT22;10992;48.170;8.596;2022-10-31T05:31:11;6.50;99.90
21662;DHT22;10992;48.170;8.596;2022-10-31T05:33:38;6.50;99.90
21662;DHT22;10992;48.170;8.596;2022-10-31T05:36:23;6.60;99.90
21662;DHT22;10992;48.170;8.596;2022-10-31T05:38:57;6.70;99.90
21662;DHT22;10992;48.170;8.596;2022-10-31T05:41:28;6.60;99.90
21662;DHT22;10992;48.170;8.596;2022-10-31T05:44:11;6.50;99.90
21662;DHT22;10992;48.170;8.596;2022-10-31T05:46:55;6.70;99.90
21662;DHT22;10992;48.170;8.596;2022-10-31T05:49:41;6.90;99.90
21662;DHT22;10992;48.170;8.596;2022-10-31T05:52:26;6.80;99.90
21662;DHT22;10992;48.170;8.596;2022-10-31T05:55:00;6.60;99.90
21662;DHT22;10992;48.170;8.596;2022-10-31T05:57:29;6.50;99.90
21662;DHT22;10992;48.170;8.596;2022-10-31T05:59:56;6.60;99.90
21662;DHT22;10992;48.170;8.596;2022-10-31T06:02:23;6.70;99.90
21662;DHT22;10992;48.170;8.596;2022-10-31T06:05:26;6.80;99.90
21662;DHT22;10992;48.170;8.596;2022-10-31T06:07:54;6.90;99.90
21662;DHT22;10992;48.170;8.596;2022-10-31T06:10:22;7.00;99.90
21662;DHT22;10992;48.170;8.596;2022-10-31T06:12:53;7.10;99.90
21662;DHT22;10992;48.170;8.596;2022-10-31T06:15:27;7.00;99.90
21662;DHT22;10992;48.170;8.596;2022-10-31T06:18:03;7.00;99.90
21662;DHT22;10992;48.170;8.596;2022-10-31T06:20:41;7.00;99.90
21662;DHT22;10992;48.170;8.596;2022-10-31T06:23:08;7.10;99.90
21662;DHT22;10992;48.170;8.596;2022-10-31T06:25:35;7.20;99.90
21662;DHT22;10992;48.170;8.596;2022-10-31T06:28:04;7.30;99.90
21662;DHT22;10992;48.170;8.596;2022-10-31T06:30:50;7.40;99.90
21662;DHT22;10992;48.170;8.596;2022-10-31T06:33:17;7.50;99.90
21662;DHT22;10992;48.170;8.596;2022-10-31T06:35:54;7.60;99.90
21662;DHT22;10992;48.170;8.596;2022-10-31T06:38:22;7.70;99.90
21662;DHT22;10992;48.170;8.596;2022-10-31T06:40:49;7.90;99.90
21662;DHT22;10992;48.170;8.596;2022-10-31T06:43:25;8.80;99.90
21662;DHT22;10992;48.170;8.596;2022-10-31T06:46:15;9.40;99.90
21662;DHT22;10992;48.170;8.596;2022-10-31T06:48:57;10.20;99.90
21662;DHT22;10992;48.170;8.596;2022-10-31T06:51:40;10.60;99.90
21662;DHT22;10992;48.170;8.596;2022-10-31T06:54:07;10.80;99.90
21662;DHT22;10992;48.170;8.596;2022-10-31T06:56:34;11.30;99.90
21662;DHT22;10992;48.170;8.596;2022-10-31T06:59:02;11.20;99.90
21662;DHT22;10992;48.170;8.596;2022-10-31T07:01:50;11.00;99.90
21662;DHT22;10992;48.170;8.596;2022-10-31T07:04:18;11.10;99.90
21662;DHT22;10992;48.170;8.596;2022-10-31T07:06:46;11.40;99.90
21662;DHT22;10992;48.170;8.596;2022-10-31T07:09:18;11.60;99.90
21662;DHT22;10992;48.170;8.596;2022-10-31T07:11:46;11.90;99.90
21662;DHT22;10992;48.170;8.596;2022-10-31T07:14:14;11.90;99.90
21662;DHT22;10992;48.170;8.596;2022-10-31T07:16:41;11.90;99.90
21662;DHT22;10992;48.170;8.596;2022-10-31T07:19:10;11.60;99.90
21662;DHT22;10992;48.170;8.596;2022-10-31T07:21:37;11.40;99.90
21662;DHT22;10992;48.170;8.596;2022-10-31T07:24:05;11.50;99.90
21662;DHT22;10992;48.170;8.596;2022-10-31T07:26:42;11.80;99.90
21662;DHT22;10992;48.170;8.596;2022-10-31T07:29:09;12.20;99.90
21662;DHT22;10992;48.170;8.596;2022-10-31T07:31:36;12.60;99.90
21662;DHT22;10992;48.170;8.596;2022-10-31T07:34:11;13.10;99.90
21662;DHT22;10992;48.170;8.596;2022-10-31T07:36:56;13.50;99.90
21662;DHT22;10992;48.170;8.596;2022-10-31T07:39:23;14.00;99.90
21662;DHT22;10992;48.170;8.596;2022-10-31T07:41:51;14.00;99.90
21662;DHT22;10992;48.170;8.596;2022-10-31T07:44:18;14.00;99.90
21662;DHT22;10992;48.170;8.596;2022-10-31T07:47:04;13.80;99.90
21662;DHT22;10992;48.170;8.596;2022-10-31T07:49:49;14.00;99.90
21662;DHT22;10992;48.170;8.596;2022-10-31T07:52:35;13.80;99.90
21662;DHT22;10992;48.170;8.596;2022-10-31T07:55:21;13.60;99.90
21662;DHT22;10992;48.170;8.596;2022-10-31T07:57:56;13.80;99.90
21662;DHT22;10992;48.170;8.596;2022-10-31T08:00:23;14.40;99.90
21662;DHT22;10992;48.170;8.596;2022-10-31T08:03:17;15.00;99.90
21662;DHT22;10992;48.170;8.596;2022-10-31T08:06:03;15.30;99.90
21662;DHT22;10992;48.170;8.596;2022-10-31T08:08:50;15.10;99.90
21662;DHT22;10992;48.170;8.596;2022-10-31T08:11:18;14.90;99.90
21662;DHT22;10992;48.170;8.596;2022-10-31T08:13:47;14.80;99.90
21662;DHT22;10992;48.170;8.596;2022-10-31T08:16:14;14.40;99.90
21662;DHT22;10992;48.170;8.596;2022-10-31T08:18:52;14.10;99.90
21662;DHT22;10992;48.170;8.596;2022-10-31T08:21:22;14.60;99.90
21662;DHT22;10992;48.170;8.596;2022-10-31T08:23:49;14.40;99.90
21662;DHT22;10992;48.170;8.596;2022-10-31T08:26:19;14.30;99.90
21662;DHT22;10992;48.170;8.596;2022-10-31T08:28:48;14.20;99.90
21662;DHT22;10992;48.170;8.596;2022-10-31T08:31:19;14.30;99.90
21662;DHT22;10992;48.170;8.596;2022-10-31T08:33:46;14.30;99.90
21662;DHT22;10992;48.170;8.596;2022-10-31T08:36:33;14.40;99.90
21662;DHT22;10992;48.170;8.596;2022-10-31T08:39:13;14.50;99.90
21662;DHT22;10992;48.170;8.596;2022-10-31T08:41:40;14.50;99.90
21662;DHT22;10992;48.170;8.596;2022-10-31T08:44:11;14.40;99.90
21662;DHT22;10992;48.170;8.596;2022-10-31T08:46:38;14.80;99.90
21662;DHT22;10992;48.170;8.596;2022-10-31T08:49:05;15.30;99.90
21662;DHT22;10992;48.170;8.596;2022-10-31T08:51:32;15.40;99.90
21662;DHT22;10992;48.170;8.596;2022-10-31T08:54:00;15.40;99.90
21662;DHT22;10992;48.170;8.596;2022-10-31T08:56:33;15.80;99.90
21662;DHT22;10992;48.170;8.596;2022-10-31T08:59:03;16.40;99.90
21662;DHT22;10992;48.170;8.596;2022-10-31T09:01:58;16.70;99.90
21662;DHT22;10992;48.170;8.596;2022-10-31T09:04:29;16.90;99.90
21662;DHT22;10992;48.170;8.596;2022-10-31T09:06:56;16.60;99.90
21662;DHT22;10992;48.170;8.596;2022-10-31T09:09:43;16.80;99.90
21662;DHT22;10992;48.170;8.596;2022-10-31T09:12:10;17.00;99.90
21662;DHT22;10992;48.170;8.596;2022-10-31T09:14:56;17.20;99.90
21662;DHT22;10992;48.170;8.596;2022-10-31T09:17:28;17.30;99.90
21662;DHT22;10992;48.170;8.596;2022-10-31T09:20:16;17.40;99.90
21662;DHT22;10992;48.170;8.596;2022-10-31T09:22:43;17.20;99.90
21662;DHT22;10992;48.170;8.596;2022-10-31T09:25:10;17.30;99.90
21662;DHT22;10992;48.170;8.596;2022-10-31T09:27:39;17.50;99.90
21662;DHT22;10992;48.170;8.596;2022-10-31T09:30:06;17.70;99.90
21662;DHT22;10992;48.170;8.596;2022-10-31T09:32:34;17.80;99.90
21662;DHT22;10992;48.170;8.596;2022-10-31T09:35:05;17.80;99.90
21662;DHT22;10992;48.170;8.596;2022-10-31T09:37:32;18.00;99.90
21662;DHT22;10992;48.170;8.596;2022-10-31T09:39:59;18.20;99.90
21662;DHT22;10992;48.170;8.596;2022-10-31T09:48:37;18.50;99.90
21662;DHT22;10992;48.170;8.596;2022-10-31T09:51:24;18.60;99.90
21662;DHT22;10992;48.170;8.596;2022-10-31T09:54:18;19.10;99.90
21662;DHT22;10992;48.170;8.596;2022-10-31T09:56:47;19.40;99.90
21662;DHT22;10992;48.170;8.596;2022-10-31T09:59:26;18.80;99.90
21662;DHT22;10992;48.170;8.596;2022-10-31T10:04:44;19.30;99.90
21662;DHT22;10992;48.170;8.596;2022-10-31T10:10:27;19.90;99.90
21662;DHT22;10992;48.170;8.596;2022-10-31T10:27:04;20.40;99.90
21662;DHT22;10992;48.170;8.596;2022-10-31T10:29:44;20.10;99.90
21662;DHT22;10992;48.170;8.596;2022-10-31T10:32:20;20.30;99.90
21662;DHT22;10992;48.170;8.596;2022-10-31T10:35:16;20.80;99.90
21662;DHT22;10992;48.170;8.596;2022-10-31T10:37:45;20.90;99.90
21662;DHT22;10992;48.170;8.596;2022-10-31T10:51:22;20.00;99.90
21662;DHT22;10992;48.170;8.596;2022-10-31T10:59:39;19.60;99.90
21662;DHT22;10992;48.170;8.596;2022-10-31T11:02:18;19.60;99.90
21662;DHT22;10992;48.170;8.596;2022-10-31T11:04:51;19.70;99.90
21662;DHT22;10992;48.170;8.596;2022-10-31T11:07:18;19.80;99.90
21662;DHT22;10992;48.170;8.596;2022-10-31T11:09:45;19.80;99.90
21662;DHT22;10992;48.170;8.596;2022-10-31T11:12:33;19.70;99.90
21662;DHT22;10992;48.170;8.596;2022-10-31T11:15:07;19.80;99.90
21662;DHT22;10992;48.170;8.596;2022-10-31T11:17:38;19.90;99.90
21662;DHT22;10992;48.170;8.596;2022-10-31T11:22:46;19.40;99.90
21662;DHT22;10992;48.170;8.596;2022-10-31T11:27:46;19.60;99.90
21662;DHT22;10992;48.170;8.596;2022-10-31T11:30:14;19.10;99.90
21662;DHT22;10992;48.170;8.596;2022-10-31T11:32:49;18.90;99.90
21662;DHT22;10992;48.170;8.596;2022-10-31T11:35:20;18.70;99.90
21662;DHT22;10992;48.170;8.596;2022-10-31T11:37:50;18.90;99.90
21662;DHT22;10992;48.170;8.596;2022-10-31T11:40:20;18.90;99.90
21662;DHT22;10992;48.170;8.596;2022-10-31T11:42:48;19.10;99.90
21662;DHT22;10992;48.170;8.596;2022-10-31T11:45:31;19.10;99.90
21662;DHT22;10992;48.170;8.596;2022-10-31T11:48:01;19.20;99.90
21662;DHT22;10992;48.170;8.596;2022-10-31T11:50:41;19.10;99.90
21662;DHT22;10992;48.170;8.596;2022-10-31T11:53:16;18.70;99.90
21662;DHT22;10992;48.170;8.596;2022-10-31T11:55:45;18.60;99.90
21662;DHT22;10992;48.170;8.596;2022-10-31T11:58:24;18.50;99.90
21662;DHT22;10992;48.170;8.596;2022-10-31T12:00:56;18.20;99.90
21662;DHT22;10992;48.170;8.596;2022-10-31T12:06:07;18.40;99.90
21662;DHT22;10992;48.170;8.596;2022-10-31T12:08:36;18.40;99.90
21662;DHT22;10992;48.170;8.596;2022-10-31T12:25:12;20.30;99.90
21662;DHT22;10992;48.170;8.596;2022-10-31T12:27:57;20.90;99.90
21662;DHT22;10992;48.170;8.596;2022-10-31T12:30:36;21.10;99.90
21662;DHT22;10992;48.170;8.596;2022-10-31T12:41:46;20.40;99.90
21662;DHT22;10992;48.170;8.596;2022-10-31T12:44:41;20.50;99.90
21662;DHT22;10992;48.170;8.596;2022-10-31T12:55:56;21.40;99.90
21662;DHT22;10992;48.170;8.596;2022-10-31T12:58:33;22.00;99.90
21662;DHT22;10992;48.170;8.596;2022-10-31T13:01:14;23.10;99.90
21662;DHT22;10992;48.170;8.596;2022-10-31T13:04:03;24.10;99.90
21662;DHT22;10992;48.170;8.596;2022-10-31T13:06:38;25.20;99.90
21662;DHT22;10992;48.170;8.596;2022-10-31T13:09:15;24.50;99.90
21662;DHT22;10992;48.170;8.596;2022-10-31T13:11:47;24.50;99.90
21662;DHT22;10992;48.170;8.596;2022-10-31T13:17:29;23.70;99.90
21662;DHT22;10992;48.170;8.596;2022-10-31T13:20:13;23.50;99.90
21662;DHT22;10992;48.170;8.596;2022-10-31T13:22:45;23.40;99.90
21662;DHT22;10992;48.170;8.596;2022-10-31T13:25:36;23.90;99.90
21662;DHT22;10992;48.170;8.596;2022-10-31T13:30:51;23.60;99.90
21662;DHT22;10992;48.170;8.596;2022-10-31T13:33:30;24.10;99.90
21662;DHT22;10992;48.170;8.596;2022-10-31T13:38:46;24.00;99.90
21662;DHT22;10992;48.170;8.596;2022-10-31T13:49:00;24.80;99.90
21662;DHT22;10992;48.170;8.596;2022-10-31T13:51:32;25.10;99.90
21662;DHT22;10992;48.170;8.596;2022-10-31T13:54:06;24.50;99.90
21662;DHT22;10992;48.170;8.596;2022-10-31T13:56:49;23.80;99.90
21662;DHT22;10992;48.170;8.596;2022-10-31T13:59:21;23.50;99.90
21662;DHT22;10992;48.170;8.596;2022-10-31T14:01:53;23.40;99.90
21662;DHT22;10992;48.170;8.596;2022-10-31T14:04:28;23.90;99.90
21662;DHT22;10992;48.170;8.596;2022-10-31T14:09:31;25.10;99.90
21662;DHT22;10992;48.170;8.596;2022-10-31T14:12:02;25.30;99.90
21662;DHT22;10992;48.170;8.596;2022-10-31T14:14:34;25.40;99.90
21662;DHT22;10992;48.170;8.596;2022-10-31T14:17:02;25.00;99.90
21662;DHT22;10992;48.170;8.596;2022-10-31T14:19:29;24.20;99.90
21662;DHT22;10992;48.170;8.596;2022-10-31T14:21:56;23.10;99.90
21662;DHT22;10992;48.170;8.596;2022-10-31T14:29:46;21.80;99.90
21662;DHT22;10992;48.170;8.596;2022-10-31T14:34:53;21.50;99.90
21662;DHT22;10992;48.170;8.596;2022-10-31T14:40:42;21.10;99.90
21662;DHT22;10992;48.170;8.596;2022-10-31T14:43:35;20.80;99.90
21662;DHT22;10992;48.170;8.596;2022-10-31T14:46:15;20.70;99.90
21662;DHT22;10992;48.170;8.596;2022-10-31T14:51:21;20.40;99.90
21662;DHT22;10992;48.170;8.596;2022-10-31T14:53:52;20.70;99.90
21662;DHT22;10992;48.170;8.596;2022-10-31T14:56:26;21.00;99.90
21662;DHT22;10992;48.170;8.596;2022-10-31T14:58:57;21.00;99.90
21662;DHT22;10992;48.170;8.596;2022-10-31T15:01:32;21.40;99.90
21662;DHT22;10992;48.170;8.596;2022-10-31T15:04:11;21.40;99.90
21662;DHT22;10992;48.170;8.596;2022-10-31T15:09:35;21.40;99.90
21662;DHT22;10992;48.170;8.596;2022-10-31T15:12:23;20.90;99.90
21662;DHT22;10992;48.170;8.596;2022-10-31T15:14:51;20.70;99.90
21662;DHT22;10992;48.170;8.596;2022-10-31T15:17:20;20.40;99.90
21662;DHT22;10992;48.170;8.596;2022-10-31T15:19:47;20.20;99.90
21662;DHT22;10992;48.170;8.596;2022-10-31T15:22:16;19.90;99.90
21662;DHT22;10992;48.170;8.596;2022-10-31T15:24:44;19.50;99.90
21662;DHT22;10992;48.170;8.596;2022-10-31T15:27:16;19.10;99.90
21662;DHT22;10992;48.170;8.596;2022-10-31T15:29:55;18.70;99.90
21662;DHT22;10992;48.170;8.596;2022-10-31T15:32:23;18.40;99.90
21662;DHT22;10992;48.170;8.596;2022-10-31T15:34:52;18.10;99.90
21662;DHT22;10992;48.170;8.596;2022-10-31T15:37:21;17.80;99.90
21662;DHT22;10992;48.170;8.596;2022-10-31T15:39:49;17.60;99.90
21662;DHT22;10992;48.170;8.596;2022-10-31T15:44:52;17.10;99.90
21662;DHT22;10992;48.170;8.596;2022-10-31T15:47:22;16.80;99.90
21662;DHT22;10992;48.170;8.596;2022-10-31T15:49:55;16.50;99.90
21662;DHT22;10992;48.170;8.596;2022-10-31T15:52:45;16.20;99.90
21662;DHT22;10992;48.170;8.596;2022-10-31T15:55:15;16.00;99.90
21662;DHT22;10992;48.170;8.596;2022-10-31T15:57:45;15.70;99.90
21662;DHT22;10992;48.170;8.596;2022-10-31T16:03:04;15.20;99.90
21662;DHT22;10992;48.170;8.596;2022-10-31T16:05:38;15.00;99.90
21662;DHT22;10992;48.170;8.596;2022-10-31T16:13:28;14.40;99.90
21662;DHT22;10992;48.170;8.596;2022-10-31T16:15:58;14.20;99.90
21662;DHT22;10992;48.170;8.596;2022-10-31T16:18:47;14.10;99.90
21662;DHT22;10992;48.170;8.596;2022-10-31T16:21:14;13.90;99.90
21662;DHT22;10992;48.170;8.596;2022-10-31T16:23:46;13.80;99.90
21662;DHT22;10992;48.170;8.596;2022-10-31T16:26:17;13.80;99.90
21662;DHT22;10992;48.170;8.596;2022-10-31T16:28:56;13.60;99.90
21662;DHT22;10992;48.170;8.596;2022-10-31T16:31:37;13.40;99.90
21662;DHT22;10992;48.170;8.596;2022-10-31T16:36:37;13.60;99.90
21662;DHT22;10992;48.170;8.596;2022-10-31T16:39:06;13.40;99.90
21662;DHT22;10992;48.170;8.596;2022-10-31T16:41:38;13.30;99.90
21662;DHT22;10992;48.170;8.596;2022-10-31T16:46:41;13.20;99.90
21662;DHT22;10992;48.170;8.596;2022-10-31T16:49:09;13.20;99.90
21662;DHT22;10992;48.170;8.596;2022-10-31T16:51:37;13.20;99.90
21662;DHT22;10992;48.170;8.596;2022-10-31T16:54:04;13.20;99.90
21662;DHT22;10992;48.170;8.596;2022-10-31T16:56:32;13.50;99.90
21662;DHT22;10992;48.170;8.596;2022-10-31T16:59:02;13.50;99.90
21662;DHT22;10992;48.170;8.596;2022-10-31T17:01:30;13.30;99.90
21662;DHT22;10992;48.170;8.596;2022-10-31T17:03:58;13.20;99.90
21662;DHT22;10992;48.170;8.596;2022-10-31T17:06:25;13.10;99.90
21662;DHT22;10992;48.170;8.596;2022-10-31T17:08:54;13.00;99.90
21662;DHT22;10992;48.170;8.596;2022-10-31T17:11:23;12.90;99.90
21662;DHT22;10992;48.170;8.596;2022-10-31T17:13:52;12.90;99.90
21662;DHT22;10992;48.170;8.596;2022-10-31T17:16:20;12.80;99.90
21662;DHT22;10992;48.170;8.596;2022-10-31T17:18:47;12.70;99.90
21662;DHT22;10992;48.170;8.596;2022-10-31T17:21:21;12.60;99.90
21662;DHT22;10992;48.170;8.596;2022-10-31T17:23:49;12.50;99.90
21662;DHT22;10992;48.170;8.596;2022-10-31T17:26:17;12.50;99.90
21662;DHT22;10992;48.170;8.596;2022-10-31T17:28:44;12.60;99.90
21662;DHT22;10992;48.170;8.596;2022-10-31T17:31:23;12.60;99.90
21662;DHT22;10992;48.170;8.596;2022-10-31T17:33:54;12.50;99.90
21662;DHT22;10992;48.170;8.596;2022-10-31T17:36:29;12.40;99.90
21662;DHT22;10992;48.170;8.596;2022-10-31T17:38:56;12.50;99.90
21662;DHT22;10992;48.170;8.596;2022-10-31T17:41:23;12.50;99.90
21662;DHT22;10992;48.170;8.596;2022-10-31T17:43:57;12.30;99.90
21662;DHT22;10992;48.170;8.596;2022-10-31T17:46:25;12.20;99.90
21662;DHT22;10992;48.170;8.596;2022-10-31T17:48:52;12.10;99.90
21662;DHT22;10992;48.170;8.596;2022-10-31T17:51:19;12.30;99.90
21662;DHT22;10992;48.170;8.596;2022-10-31T17:53:46;12.30;99.90
21662;DHT22;10992;48.170;8.596;2022-10-31T17:56:13;12.10;99.90
21662;DHT22;10992;48.170;8.596;2022-10-31T17:58:40;12.20;99.90
21662;DHT22;10992;48.170;8.596;2022-10-31T18:01:12;12.10;99.90
21662;DHT22;10992;48.170;8.596;2022-10-31T18:03:39;12.00;99.90
21662;DHT22;10992;48.170;8.596;2022-10-31T18:06:07;11.90;99.90
21662;DHT22;10992;48.170;8.596;2022-10-31T18:08:36;12.00;99.90
21662;DHT22;10992;48.170;8.596;2022-10-31T18:11:08;12.10;99.90
21662;DHT22;10992;48.170;8.596;2022-10-31T18:13:37;12.10;99.90
21662;DHT22;10992;48.170;8.596;2022-10-31T18:16:08;12.30;99.90
21662;DHT22;10992;48.170;8.596;2022-10-31T18:18:36;12.50;99.90
21662;DHT22;10992;48.170;8.596;2022-10-31T18:21:03;12.90;99.90
21662;DHT22;10992;48.170;8.596;2022-10-31T18:23:30;13.00;99.90
21662;DHT22;10992;48.170;8.596;2022-10-31T18:25:57;13.20;99.90
21662;DHT22;10992;48.170;8.596;2022-10-31T18:28:24;13.00;99.90
21662;DHT22;10992;48.170;8.596;2022-10-31T18:30:51;12.90;99.90
21662;DHT22;10992;48.170;8.596;2022-10-31T18:33:18;12.90;99.90
21662;DHT22;10992;48.170;8.596;2022-10-31T18:35:45;12.80;99.90
21662;DHT22;10992;48.170;8.596;2022-10-31T18:38:12;12.70;99.90
21662;DHT22;10992;48.170;8.596;2022-10-31T18:40:39;12.70;99.90
21662;DHT22;10992;48.170;8.596;2022-10-31T18:43:05;12.70;99.90
21662;DHT22;10992;48.170;8.596;2022-10-31T18:45:32;12.60;99.90
21662;DHT22;10992;48.170;8.596;2022-10-31T18:48:14;12.60;99.90
21662;DHT22;10992;48.170;8.596;2022-10-31T18:50:41;12.50;99.90
21662;DHT22;10992;48.170;8.596;2022-10-31T18:53:08;12.40;99.90
21662;DHT22;10992;48.170;8.596;2022-10-31T18:55:42;12.40;99.90
21662;DHT22;10992;48.170;8.596;2022-10-31T18:58:15;12.40;99.90
21662;DHT22;10992;48.170;8.596;2022-10-31T19:00:42;12.30;99.90
21662;DHT22;10992;48.170;8.596;2022-10-31T19:03:08;12.30;99.90